createdAt,value
2023-05-09T00:02:36.202Z,6.33
2023-05-09T00:05:39.000Z,6.25
2023-05-09T00:08:41.722Z,6.41
2023-05-09T00:11:43.982Z,6.53
2023-05-09T00:14:46.040Z,6.23
2023-05-09T00:17:48.093Z,6.20
2023-05-09T00:20:50.538Z,6.30
2023-05-09T00:23:52.459Z,6.30
2023-05-09T00:26:54.299Z,6.22
2023-05-09T00:29:56.947Z,6.28
2023-05-09T00:32:58.968Z,6.36
2023-05-09T00:36:01.326Z,6.33
2023-05-09T00:39:03.555Z,6.46
2023-05-09T00:42:05.634Z,6.43
2023-05-09T00:45:08.607Z,6.41
2023-05-09T00:48:10.656Z,6.37
2023-05-09T00:51:13.412Z,6.28
2023-05-09T00:54:15.731Z,6.24
2023-05-09T00:57:17.758Z,6.16
2023-05-09T01:00:19.743Z,6.05
2023-05-09T01:03:22.056Z,6.14
2023-05-09T01:07:08.587Z,6.09
2023-05-09T01:10:42.663Z,6.20
2023-05-09T01:14:16.056Z,6.11
2023-05-09T01:17:30.750Z,6.01
2023-05-09T01:20:57.504Z,6.17
2023-05-09T01:24:36.915Z,6.25
2023-05-09T01:27:58.488Z,6.28
2023-05-09T01:31:01.150Z,6.30
2023-05-09T01:34:05.773Z,6.30
2023-05-09T01:37:09.634Z,6.36
2023-05-09T01:40:16.780Z,6.29
2023-05-09T01:43:19.869Z,6.10
2023-05-09T01:46:37.679Z,6.05
2023-05-09T01:49:41.503Z,6.05
2023-05-09T01:52:44.565Z,6.11
2023-05-09T01:55:48.453Z,6.21
2023-05-09T01:58:51.868Z,6.11
2023-05-09T02:01:55.813Z,6.23
2023-05-09T02:04:58.761Z,6.37
2023-05-09T02:08:00.953Z,6.44
2023-05-09T02:11:02.955Z,6.33
2023-05-09T02:14:04.897Z,6.38
2023-05-09T02:17:09.527Z,6.53
2023-05-09T02:20:11.674Z,6.51
2023-05-09T02:23:13.682Z,6.32
2023-05-09T02:26:15.876Z,6.53
2023-05-09T02:29:22.093Z,6.53
2023-05-09T02:32:28.847Z,6.63
2023-05-09T02:35:31.158Z,6.68
2023-05-09T02:38:33.410Z,6.55
2023-05-09T02:41:36.834Z,6.69
2023-05-09T02:44:39.133Z,6.77
2023-05-09T02:47:41.165Z,6.63
2023-05-09T02:50:44.348Z,6.81
2023-05-09T02:53:46.360Z,6.76
2023-05-09T02:56:48.624Z,6.68
2023-05-09T02:59:50.873Z,6.65
2023-05-09T03:02:52.948Z,6.61
2023-05-09T03:05:55.757Z,6.65
2023-05-09T03:08:57.629Z,6.95
2023-05-09T03:12:00.325Z,6.96
2023-05-09T03:15:03.473Z,6.88
2023-05-09T03:18:05.823Z,6.88
2023-05-09T03:21:07.840Z,6.95
2023-05-09T03:24:12.047Z,6.96
2023-05-09T03:27:13.912Z,7.06
2023-05-09T03:30:15.883Z,7.05
2023-05-09T03:33:19.416Z,6.90
2023-05-09T03:36:22.155Z,7.08
2023-05-09T03:39:24.906Z,7.07
2023-05-09T03:42:31.211Z,7.06
2023-05-09T03:45:36.254Z,7.08
2023-05-09T03:48:38.446Z,7.30
2023-05-09T03:51:42.281Z,7.22
2023-05-09T03:54:48.698Z,7.25
2023-05-09T03:57:51.470Z,7.43
2023-05-09T04:00:53.805Z,7.27
2023-05-09T04:03:58.641Z,7.38
2023-05-09T04:07:02.271Z,7.32
2023-05-09T04:10:05.305Z,7.33
2023-05-09T04:13:08.126Z,7.29
2023-05-09T04:16:10.849Z,7.28
2023-05-09T04:19:13.778Z,7.38
2023-05-09T04:22:15.794Z,7.47
2023-05-09T04:25:17.949Z,7.16
2023-05-09T04:28:20.872Z,7.26
2023-05-09T04:31:23.181Z,7.51
2023-05-09T04:34:27.767Z,7.25
2023-05-09T04:37:32.743Z,7.47
2023-05-09T04:40:36.646Z,7.52
2023-05-09T04:43:38.645Z,7.68
2023-05-09T04:46:42.019Z,7.80
2023-05-09T04:49:43.986Z,7.71
2023-05-09T04:52:45.848Z,7.60
2023-05-09T04:55:48.018Z,8.09
2023-05-09T04:58:50.368Z,8.00
2023-05-09T05:01:52.315Z,8.02
2023-05-09T05:05:06.211Z,8.33
2023-05-09T05:08:13.793Z,8.23
2023-05-09T05:11:18.078Z,8.09
2023-05-09T05:14:20.523Z,8.32
2023-05-09T05:17:22.750Z,8.40
2023-05-09T05:20:24.878Z,8.29
2023-05-09T05:23:37.284Z,8.61
2023-05-09T05:26:39.333Z,8.46
2023-05-09T05:29:41.382Z,8.22
2023-05-09T05:32:43.996Z,8.45
2023-05-09T05:35:47.902Z,8.77
2023-05-09T05:38:49.922Z,9.12
2023-05-09T05:41:52.113Z,9.11
2023-05-09T05:44:54.478Z,9.57
2023-05-09T05:47:56.860Z,9.78
2023-05-09T05:50:59.543Z,9.88
2023-05-09T05:58:30.146Z,9.60
2023-05-09T06:01:32.151Z,10.15
2023-05-09T06:04:34.156Z,10.69
2023-05-09T06:07:36.512Z,10.70
2023-05-09T06:10:38.483Z,10.94
2023-05-09T06:13:40.445Z,11.30
2023-05-09T06:16:45.158Z,11.64
2023-05-09T06:19:47.289Z,12.01
2023-05-09T06:23:29.048Z,11.76
2023-05-09T06:26:51.057Z,11.16
2023-05-09T06:29:52.949Z,11.61
2023-05-09T06:32:55.587Z,11.76
2023-05-09T06:35:59.747Z,11.98
2023-05-09T06:39:01.794Z,12.05
2023-05-09T06:42:03.882Z,12.65
2023-05-09T06:45:08.000Z,13.03
2023-05-09T06:48:09.949Z,13.10
2023-05-09T06:51:11.852Z,13.43
2023-05-09T06:54:13.864Z,13.64
2023-05-09T06:57:16.072Z,13.65
2023-05-09T07:00:18.344Z,13.92
2023-05-09T07:03:20.298Z,13.52
2023-05-09T07:06:22.142Z,13.10
2023-05-09T07:09:27.925Z,13.67
2023-05-09T07:12:31.513Z,13.37
2023-05-09T07:15:41.245Z,13.47
2023-05-09T07:18:44.491Z,13.61
2023-05-09T07:21:46.578Z,13.78
2023-05-09T07:24:48.614Z,13.57
2023-05-09T07:27:50.552Z,13.78
2023-05-09T07:30:52.465Z,13.81
2023-05-09T07:33:54.366Z,14.74
2023-05-09T07:36:56.221Z,14.15
2023-05-09T07:39:58.211Z,14.14
2023-05-09T07:43:00.060Z,14.18
2023-05-09T07:46:02.109Z,14.07
2023-05-09T07:49:04.097Z,13.89
2023-05-09T07:52:06.152Z,14.89
2023-05-09T07:55:08.355Z,14.96
2023-05-09T07:58:10.502Z,14.58
2023-05-09T08:01:12.319Z,14.16
2023-05-09T08:04:14.469Z,14.50
2023-05-09T08:07:16.796Z,14.52
2023-05-09T08:10:18.803Z,15.11
2023-05-09T08:13:22.233Z,14.68
2023-05-09T08:16:24.308Z,14.82
2023-05-09T08:19:26.440Z,14.49
2023-05-09T08:22:28.398Z,14.56
2023-05-09T08:25:30.311Z,15.03
2023-05-09T08:28:32.205Z,15.36
2023-05-09T08:31:34.131Z,15.57
2023-05-09T08:34:36.500Z,14.75
2023-05-09T08:37:38.359Z,15.17
2023-05-09T08:40:41.273Z,15.29
2023-05-09T08:43:44.079Z,15.63
2023-05-09T08:46:48.918Z,15.70
2023-05-09T08:49:51.509Z,15.19
2023-05-09T08:52:53.759Z,15.50
2023-05-09T08:55:55.770Z,15.87
2023-05-09T08:58:59.096Z,15.19
2023-05-09T09:02:01.623Z,15.55
2023-05-09T09:05:04.478Z,15.71
2023-05-09T09:08:07.647Z,15.84
2023-05-09T09:11:13.876Z,15.64
2023-05-09T09:14:22.895Z,16.04
2023-05-09T09:58:02.884Z,16.84
2023-05-09T10:01:16.875Z,16.74
2023-05-09T10:04:18.881Z,16.27
2023-05-09T10:07:23.922Z,15.92
2023-05-09T10:10:34.261Z,16.47
2023-05-09T10:13:37.481Z,15.76
2023-05-09T10:16:43.692Z,16.34
2023-05-09T10:19:48.528Z,16.74
2023-05-09T10:23:12.128Z,16.30
2023-05-09T10:26:38.173Z,16.36
2023-05-09T10:29:51.749Z,15.76
2023-05-09T10:32:53.717Z,16.58
2023-05-09T10:36:01.299Z,16.66
2023-05-09T10:39:03.558Z,16.97
2023-05-09T10:42:06.090Z,17.56
2023-05-09T10:45:09.722Z,17.71
2023-05-09T10:48:11.954Z,17.60
2023-05-09T10:51:14.038Z,17.39
2023-05-09T10:54:30.577Z,16.60
2023-05-09T10:57:33.041Z,17.15
2023-05-09T11:00:42.234Z,17.59
2023-05-09T11:03:55.238Z,16.99
2023-05-09T11:06:57.873Z,17.43
2023-05-09T11:10:10.289Z,17.54
2023-05-09T11:13:12.234Z,16.92
2023-05-09T11:16:14.207Z,16.85
2023-05-09T11:19:35.175Z,17.51
2023-05-09T11:22:44.737Z,17.66
2023-05-09T11:25:48.066Z,18.01
2023-05-09T11:28:54.425Z,18.18
2023-05-09T11:32:07.838Z,18.48
2023-05-09T11:35:18.583Z,18.09
2023-05-09T11:38:22.019Z,17.14
2023-05-09T11:41:24.160Z,18.57
2023-05-09T11:44:28.074Z,17.72
2023-05-09T11:47:30.922Z,17.78
2023-05-09T11:50:33.345Z,18.06
2023-05-09T11:53:44.967Z,18.17
2023-05-09T12:06:59.624Z,16.59
2023-05-09T12:10:04.265Z,16.90
2023-05-09T12:13:06.337Z,17.63
2023-05-09T12:16:09.107Z,18.31
2023-05-09T12:19:12.017Z,18.34
2023-05-09T12:22:14.050Z,18.57
2023-05-09T12:25:16.362Z,18.15
2023-05-09T12:28:18.734Z,18.21
2023-05-09T12:31:21.059Z,17.92
2023-05-09T12:34:23.190Z,17.76
2023-05-09T12:37:25.302Z,17.79
2023-05-09T12:40:28.279Z,18.46
2023-05-09T12:43:35.235Z,18.74
2023-05-09T12:46:37.744Z,17.76
2023-05-09T12:49:39.860Z,17.88
2023-05-09T12:53:02.191Z,17.41
2023-05-09T12:56:12.281Z,17.54
2023-05-09T12:59:15.669Z,17.75
2023-05-09T13:02:18.039Z,17.77
2023-05-09T13:05:22.024Z,18.17
2023-05-09T13:08:23.917Z,18.07
2023-05-09T13:11:25.942Z,18.41
2023-05-09T13:14:27.876Z,18.64
2023-05-09T13:17:29.978Z,19.03
2023-05-09T13:20:31.935Z,19.42
2023-05-09T13:23:34.234Z,19.25
2023-05-09T13:26:36.162Z,18.73
2023-05-09T13:29:38.086Z,18.98
2023-05-09T13:32:39.993Z,18.69
2023-05-09T13:35:41.907Z,18.15
2023-05-09T13:38:45.575Z,17.51
2023-05-09T13:41:48.720Z,17.32
2023-05-09T13:44:50.630Z,17.44
2023-05-09T13:47:52.707Z,17.63
2023-05-09T13:50:54.751Z,17.59
2023-05-09T13:53:56.806Z,17.80
2023-05-09T13:57:00.260Z,18.31
2023-05-09T14:00:04.680Z,18.60
2023-05-09T14:03:14.337Z,18.75
2023-05-09T14:06:16.339Z,18.96
2023-05-09T14:09:18.269Z,18.96
2023-05-09T14:12:20.139Z,18.41
2023-05-09T14:15:22.042Z,17.89
2023-05-09T14:18:24.226Z,17.59
2023-05-09T14:21:26.109Z,18.14
2023-05-09T14:24:30.826Z,18.33
2023-05-09T14:27:34.011Z,18.76
2023-05-09T14:30:36.678Z,18.73
2023-05-09T14:33:38.851Z,17.97
2023-05-09T14:36:41.040Z,18.34
2023-05-09T14:39:45.131Z,17.86
2023-05-09T14:42:48.536Z,17.89
2023-05-09T14:45:51.651Z,17.67
2023-05-09T14:48:54.131Z,17.67
2023-05-09T14:51:56.227Z,17.39
2023-05-09T14:54:59.885Z,17.38
2023-05-09T14:58:02.652Z,17.39
2023-05-09T15:01:04.723Z,17.48
2023-05-09T15:04:06.886Z,17.36
2023-05-09T15:07:08.950Z,17.75
2023-05-09T15:10:11.284Z,18.05
2023-05-09T15:13:13.246Z,18.09
2023-05-09T15:16:15.241Z,17.97
2023-05-09T15:19:17.482Z,17.66
2023-05-09T15:22:19.334Z,17.28
2023-05-09T15:25:21.980Z,17.57
2023-05-09T15:28:23.936Z,17.38
2023-05-09T15:31:26.138Z,17.94
2023-05-09T15:34:28.231Z,17.90
2023-05-09T15:37:30.065Z,17.94
2023-05-09T15:40:32.398Z,17.84
2023-05-09T15:43:34.201Z,17.98
2023-05-09T15:46:36.211Z,17.72
2023-05-09T15:49:38.195Z,17.78
2023-05-09T15:52:40.043Z,17.32
2023-05-09T15:55:43.616Z,17.09
2023-05-09T15:58:45.895Z,17.11
2023-05-09T16:01:47.751Z,17.05
2023-05-09T16:04:49.689Z,17.06
2023-05-09T16:07:53.262Z,16.64
2023-05-09T16:10:56.679Z,16.39
2023-05-09T16:13:58.767Z,16.24
2023-05-09T16:17:01.140Z,16.20
2023-05-09T16:20:03.717Z,16.29
2023-05-09T16:23:05.974Z,15.99
2023-05-09T16:26:07.859Z,16.12
2023-05-09T16:29:10.115Z,16.15
2023-05-09T16:32:11.994Z,16.00
2023-05-09T16:35:13.979Z,16.08
2023-05-09T16:38:15.997Z,15.96
2023-05-09T16:41:17.929Z,15.87
2023-05-09T16:44:20.344Z,15.93
2023-05-09T16:47:22.273Z,15.95
2023-05-09T16:50:24.551Z,15.77
2023-05-09T16:53:27.974Z,15.75
2023-05-09T16:56:30.003Z,15.70
2023-05-09T16:59:32.848Z,15.57
2023-05-09T17:02:36.331Z,15.40
2023-05-09T17:05:38.278Z,15.29
2023-05-09T17:08:40.233Z,15.13
2023-05-09T17:11:42.255Z,14.93
2023-05-09T17:14:58.895Z,14.63
2023-05-09T17:18:01.486Z,14.66
2023-05-09T17:21:03.597Z,14.54
2023-05-09T17:24:05.653Z,14.59
2023-05-09T17:27:07.683Z,14.61
2023-05-09T17:30:10.279Z,14.58
2023-05-09T17:33:12.313Z,14.66
2023-05-09T17:36:14.357Z,14.53
2023-05-09T17:39:17.685Z,14.41
2023-05-09T17:42:19.665Z,14.37
2023-05-09T17:45:21.615Z,14.27
2023-05-09T17:48:23.469Z,14.22
2023-05-09T17:51:25.669Z,14.24
2023-05-09T17:54:27.621Z,14.04
2023-05-09T17:57:29.600Z,13.92
2023-05-09T18:00:32.450Z,13.81
2023-05-09T18:03:34.351Z,13.76
2023-05-09T18:06:36.733Z,13.75
2023-05-09T18:09:38.654Z,13.77
2023-05-09T18:12:40.554Z,13.61
2023-05-09T18:15:42.509Z,13.57
2023-05-09T18:18:44.977Z,13.43
2023-05-09T18:21:47.173Z,13.45
2023-05-09T18:24:49.024Z,13.38
2023-05-09T18:27:51.126Z,13.30
2023-05-09T18:30:58.296Z,13.32
2023-05-09T18:34:00.316Z,13.18
2023-05-09T18:37:02.291Z,13.15
2023-05-09T18:40:05.521Z,13.15
2023-05-09T18:43:08.017Z,13.07
2023-05-09T18:46:10.044Z,13.05
2023-05-09T18:49:12.188Z,13.01
2023-05-09T18:52:15.161Z,12.91
2023-05-09T18:55:19.783Z,12.85
2023-05-09T18:58:21.822Z,12.77
2023-05-09T19:01:24.486Z,12.72
2023-05-09T19:04:26.992Z,12.63
2023-05-09T19:07:29.681Z,12.66
2023-05-09T19:10:31.779Z,12.60
2023-05-09T19:13:37.161Z,12.55
2023-05-09T19:16:39.523Z,12.51
2023-05-09T19:19:42.039Z,12.49
2023-05-09T19:22:48.157Z,12.43
2023-05-09T19:25:53.700Z,12.46
2023-05-09T19:28:55.896Z,12.45
2023-05-09T19:31:58.246Z,12.52
2023-05-09T19:35:00.418Z,12.51
2023-05-09T19:38:02.667Z,12.47
2023-05-09T19:41:05.227Z,12.43
2023-05-09T19:44:07.360Z,12.44
2023-05-09T19:47:10.096Z,12.39
2023-05-09T19:50:12.498Z,12.31
2023-05-09T19:53:14.718Z,12.26
2023-05-09T19:56:16.914Z,12.16
2023-05-09T19:59:19.078Z,12.11
2023-05-09T20:02:21.266Z,11.96
2023-05-09T20:05:23.109Z,11.94
2023-05-09T20:08:25.647Z,11.84
2023-05-09T20:11:27.666Z,11.79
2023-05-09T20:14:29.530Z,11.74
2023-05-09T20:17:32.270Z,11.74
2023-05-09T20:20:34.406Z,11.67
2023-05-09T20:23:37.038Z,11.59
2023-05-09T20:26:39.322Z,11.52
2023-05-09T20:29:41.306Z,11.50
2023-05-09T20:32:44.290Z,11.44
2023-05-09T20:35:47.695Z,11.40
2023-05-09T20:38:50.021Z,11.39
2023-05-09T20:41:52.447Z,11.32
2023-05-09T20:44:55.202Z,11.31
2023-05-09T20:47:57.268Z,11.21
2023-05-09T20:50:59.215Z,11.16
2023-05-09T20:54:01.221Z,11.18
2023-05-09T20:57:03.216Z,11.12
2023-05-09T21:00:07.565Z,11.07
2023-05-09T21:03:10.239Z,11.08
2023-05-09T21:06:12.219Z,11.00
2023-05-09T21:09:14.793Z,11.00
2023-05-09T21:12:17.072Z,10.95
2023-05-09T21:15:19.130Z,10.96
2023-05-09T21:18:21.035Z,11.02
2023-05-09T21:21:22.949Z,11.04
2023-05-09T21:24:24.809Z,11.10
2023-05-09T21:27:27.157Z,11.17
2023-05-09T21:30:28.993Z,11.18
2023-05-09T21:33:31.166Z,11.25
2023-05-09T21:36:33.093Z,11.25
2023-05-09T21:39:35.045Z,11.17
2023-05-09T21:42:37.671Z,11.18
2023-05-09T21:45:39.606Z,11.24
2023-05-09T21:48:41.570Z,11.13
2023-05-09T21:51:43.654Z,11.19
2023-05-09T21:54:45.515Z,11.12
2023-05-09T21:57:47.341Z,11.13
2023-05-09T22:00:49.425Z,11.13
2023-05-09T22:03:51.652Z,11.12
2023-05-09T22:06:53.677Z,11.08
2023-05-09T22:09:55.769Z,11.10
2023-05-09T22:12:57.709Z,11.09
2023-05-09T22:15:59.914Z,11.07
2023-05-09T22:19:01.874Z,11.05
2023-05-09T22:22:04.048Z,10.99
2023-05-09T22:25:06.395Z,10.94
2023-05-09T22:28:08.214Z,10.90
2023-05-09T22:31:10.587Z,10.88
2023-05-09T22:34:12.496Z,10.74
2023-05-09T22:37:14.927Z,10.69
2023-05-09T22:40:20.763Z,10.72
2023-05-09T22:43:22.769Z,10.51
2023-05-09T22:46:26.018Z,10.44
2023-05-09T22:49:27.968Z,10.39
2023-05-09T22:52:29.812Z,10.30
2023-05-09T22:55:31.751Z,10.31
2023-05-09T22:58:40.862Z,10.32
2023-05-09T23:01:42.816Z,10.26
2023-05-09T23:04:44.846Z,10.12
2023-05-09T23:07:47.627Z,10.08
2023-05-09T23:10:49.481Z,9.99
2023-05-09T23:13:51.371Z,10.03
2023-05-09T23:16:53.316Z,10.00
2023-05-09T23:19:55.247Z,9.96
2023-05-09T23:22:57.096Z,9.99
2023-05-09T23:25:59.176Z,9.95
2023-05-09T23:29:01.065Z,9.93
2023-05-09T23:32:03.064Z,10.08
2023-05-09T23:35:05.872Z,9.97
2023-05-09T23:38:07.759Z,9.88
2023-05-09T23:41:09.714Z,9.83
2023-05-09T23:44:12.605Z,9.78
2023-05-09T23:47:14.504Z,9.79
2023-05-09T23:50:16.869Z,9.77
2023-05-09T23:53:19.386Z,9.76
2023-05-09T23:56:21.480Z,9.74
2023-05-09T23:59:23.460Z,9.71
